Carver, Kentucky
Current Conditions -  °F | °C
As of 5:53 AM on Sunday 23 Nov 2014 (Local Time) from KJKL Reporting Station
Broken Clouds Broken Clouds  
Wind Chill: 50°   Ceiling: 10000
Heat Index: 50°   Visibility: 10mi
Dew Point: 30°   Wind: 3mph
Humidity: 46%   Direction: 110°ESE
Pressure: 30.05"   Gusts: NA
Location:  37.7261°N, 83.0786°W
Report Text: KJKL 231053Z AUTO 11003KT 10SM BKN100 10/M01 A3005 RMK AO2 SLP175 T01001011
Loading
Personal Weather Stations






























Interactive Weather Map New forecast layout! Learn more

10-Day Weather Forecast

Advertisements
Track Severe Weather on mobile